createdAt,value
2022-11-02T00:00:28.063Z,7.06
2022-11-02T00:02:55.896Z,7.04
2022-11-02T00:05:25.013Z,7.03
2022-11-02T00:07:53.634Z,7.01
2022-11-02T00:10:23.040Z,7.01
2022-11-02T00:12:51.816Z,7.01
2022-11-02T00:15:20.236Z,7.00
2022-11-02T00:17:49.780Z,7.00
2022-11-02T00:20:19.451Z,7.01
2022-11-02T00:22:52.367Z,7.00
2022-11-02T00:25:22.429Z,7.01
2022-11-02T00:27:50.295Z,6.99
2022-11-02T00:30:18.594Z,6.98
2022-11-02T00:32:46.607Z,6.96
2022-11-02T00:35:14.539Z,6.95
2022-11-02T00:37:42.302Z,6.92
2022-11-02T00:40:13.407Z,6.91
2022-11-02T00:42:41.191Z,6.87
2022-11-02T00:45:10.182Z,6.86
2022-11-02T00:47:38.443Z,6.83
2022-11-02T00:50:07.443Z,6.79
2022-11-02T00:52:39.857Z,6.76
2022-11-02T00:55:10.303Z,6.73
2022-11-02T00:57:42.870Z,6.72
2022-11-02T01:00:12.470Z,6.70
2022-11-02T01:02:40.644Z,6.67
2022-11-02T01:05:10.216Z,6.66
2022-11-02T01:07:38.585Z,6.67
2022-11-02T01:10:07.046Z,6.69
2022-11-02T01:12:34.918Z,6.70
2022-11-02T01:15:04.951Z,6.69
2022-11-02T01:17:32.692Z,6.66
2022-11-02T01:20:00.472Z,6.64
2022-11-02T01:22:28.242Z,6.61
2022-11-02T01:24:56.272Z,6.60
2022-11-02T01:27:24.026Z,6.58
2022-11-02T01:29:51.931Z,6.59
2022-11-02T01:32:21.076Z,6.60
2022-11-02T01:34:48.870Z,6.63
2022-11-02T01:37:16.786Z,6.65
2022-11-02T01:39:44.524Z,6.64
2022-11-02T01:42:19.673Z,6.66
2022-11-02T01:44:47.469Z,6.66
2022-11-02T01:47:23.710Z,6.69
2022-11-02T01:49:58.051Z,6.71
2022-11-02T01:52:29.812Z,6.76
2022-11-02T01:55:02.089Z,6.83
2022-11-02T01:57:32.428Z,6.87
2022-11-02T02:00:07.115Z,6.90
2022-11-02T02:02:48.551Z,6.93
2022-11-02T02:05:18.682Z,6.94
2022-11-02T02:07:47.613Z,6.96
2022-11-02T02:10:15.879Z,6.99
2022-11-02T02:12:44.639Z,7.00
2022-11-02T02:15:16.560Z,7.00
2022-11-02T02:17:50.053Z,7.00
2022-11-02T02:20:33.228Z,7.00
2022-11-02T02:23:20.217Z,7.00
2022-11-02T02:26:03.456Z,7.00
2022-11-02T02:28:41.470Z,6.99
2022-11-02T02:31:17.118Z,6.95
2022-11-02T02:33:54.512Z,6.95
2022-11-02T02:36:26.983Z,6.96
2022-11-02T02:39:03.458Z,6.94
2022-11-02T02:41:38.915Z,6.93
2022-11-02T02:44:11.884Z,6.89
2022-11-02T02:46:46.634Z,6.89
2022-11-02T02:49:22.698Z,6.87
2022-11-02T02:51:51.139Z,6.86
2022-11-02T02:54:24.364Z,6.82
2022-11-02T02:56:56.202Z,6.78
2022-11-02T02:59:29.333Z,6.74
2022-11-02T03:01:59.952Z,6.71
2022-11-02T03:04:27.908Z,6.70
2022-11-02T03:06:59.512Z,6.69
2022-11-02T03:09:33.763Z,6.68
2022-11-02T03:12:14.473Z,6.68
2022-11-02T03:14:54.339Z,6.65
2022-11-02T03:17:33.645Z,6.65
2022-11-02T03:20:09.229Z,6.64
2022-11-02T03:22:48.101Z,6.64
2022-11-02T03:25:20.968Z,6.65
2022-11-02T03:27:56.155Z,6.66
2022-11-02T03:30:29.236Z,6.69
2022-11-02T03:33:03.545Z,6.71
2022-11-02T03:35:37.050Z,6.78
2022-11-02T03:38:13.500Z,6.82
2022-11-02T03:40:45.101Z,6.89
2022-11-02T03:43:16.064Z,6.98
2022-11-02T03:45:50.633Z,7.07
2022-11-02T03:48:20.198Z,7.17
2022-11-02T03:50:51.877Z,7.26
2022-11-02T03:53:27.860Z,7.36
2022-11-02T03:56:03.570Z,7.42
2022-11-02T03:58:31.578Z,7.46
2022-11-02T04:01:03.739Z,7.52
2022-11-02T04:03:34.789Z,7.56
2022-11-02T04:06:02.657Z,7.59
2022-11-02T04:08:36.997Z,7.59
2022-11-02T04:11:26.444Z,7.57
2022-11-02T04:14:15.126Z,7.56
2022-11-02T04:16:45.668Z,7.55
2022-11-02T04:19:28.378Z,7.53
2022-11-02T04:22:20.327Z,7.53
2022-11-02T04:25:10.027Z,7.53
2022-11-02T04:27:38.922Z,7.55
2022-11-02T04:30:08.582Z,7.57
2022-11-02T04:33:00.191Z,7.57
2022-11-02T04:35:32.402Z,7.58
2022-11-02T04:38:18.344Z,7.62
2022-11-02T04:40:46.941Z,7.64
2022-11-02T04:43:15.119Z,7.64
2022-11-02T04:45:43.618Z,7.61
2022-11-02T04:48:12.876Z,7.63
2022-11-02T04:50:40.653Z,7.62
2022-11-02T04:53:10.303Z,7.62
2022-11-02T04:55:39.599Z,7.60
2022-11-02T04:58:08.304Z,7.61
2022-11-02T05:00:36.245Z,7.61
2022-11-02T05:03:08.073Z,7.62
2022-11-02T05:05:41.019Z,7.65
2022-11-02T05:08:08.939Z,7.67
2022-11-02T05:10:38.287Z,7.71
2022-11-02T05:13:06.558Z,7.74
2022-11-02T05:15:39.718Z,7.78
2022-11-02T05:18:08.974Z,7.82
2022-11-02T05:20:37.659Z,7.88
2022-11-02T05:23:07.387Z,7.90
2022-11-02T05:25:35.830Z,7.96
2022-11-02T05:28:03.633Z,8.01
2022-11-02T05:30:31.428Z,8.07
2022-11-02T05:33:00.113Z,8.12
2022-11-02T05:35:28.712Z,8.16
2022-11-02T05:37:56.764Z,8.22
2022-11-02T05:40:26.605Z,8.27
2022-11-02T05:43:00.352Z,8.33
2022-11-02T05:45:29.200Z,8.36
2022-11-02T05:47:57.137Z,8.39
2022-11-02T05:50:24.858Z,8.42
2022-11-02T05:52:53.994Z,8.49
2022-11-02T05:55:21.854Z,8.52
2022-11-02T05:57:53.523Z,8.56
2022-11-02T06:00:24.154Z,8.59
2022-11-02T06:02:58.085Z,8.62
2022-11-02T06:05:26.742Z,8.65
2022-11-02T06:07:59.403Z,8.68
2022-11-02T06:10:27.346Z,8.66
2022-11-02T06:13:01.828Z,8.69
2022-11-02T06:15:31.970Z,8.70
2022-11-02T06:18:00.047Z,8.73
2022-11-02T06:20:27.875Z,8.74
2022-11-02T06:22:55.624Z,8.74
2022-11-02T06:25:23.454Z,8.76
2022-11-02T06:27:53.081Z,8.78
2022-11-02T06:30:23.272Z,8.80
2022-11-02T06:32:52.039Z,8.82
2022-11-02T06:35:21.846Z,8.83
2022-11-02T06:37:50.055Z,8.84
2022-11-02T06:40:20.303Z,8.88
2022-11-02T06:43:10.838Z,8.89
2022-11-02T06:45:39.879Z,8.92
2022-11-02T06:48:07.647Z,8.96
2022-11-02T06:50:35.414Z,8.96
2022-11-02T06:53:03.661Z,8.97
2022-11-02T06:55:31.754Z,8.98
2022-11-02T06:57:59.515Z,9.02
2022-11-02T07:00:27.289Z,9.02
2022-11-02T07:03:03.596Z,9.06
2022-11-02T07:05:32.482Z,9.06
2022-11-02T07:08:01.124Z,9.08
2022-11-02T07:10:29.363Z,9.10
2022-11-02T07:12:58.505Z,9.13
2022-11-02T07:15:28.516Z,9.13
2022-11-02T07:17:56.878Z,9.17
2022-11-02T07:20:26.038Z,9.19
2022-11-02T07:22:54.311Z,9.23
2022-11-02T07:25:22.253Z,9.25
2022-11-02T07:27:50.230Z,9.29
2022-11-02T07:30:18.315Z,9.32
2022-11-02T07:32:47.536Z,9.37
2022-11-02T07:35:17.442Z,9.42
2022-11-02T07:37:56.443Z,9.48
2022-11-02T07:40:24.216Z,9.54
2022-11-02T07:42:53.906Z,9.58
2022-11-02T07:45:29.329Z,9.61
2022-11-02T07:47:57.177Z,9.66
2022-11-02T07:50:27.107Z,9.68
2022-11-02T07:52:57.903Z,9.74
2022-11-02T07:55:28.303Z,9.76
2022-11-02T07:57:57.703Z,9.81
2022-11-02T08:00:26.940Z,9.83
2022-11-02T08:02:58.082Z,9.84
2022-11-02T08:05:27.317Z,9.87
2022-11-02T08:07:59.432Z,9.91
2022-11-02T08:10:28.729Z,9.93
2022-11-02T08:12:57.089Z,9.96
2022-11-02T08:15:25.436Z,9.98
2022-11-02T08:18:03.009Z,10.01
2022-11-02T08:20:31.334Z,10.03
2022-11-02T08:23:00.737Z,10.07
2022-11-02T08:25:29.295Z,10.09
2022-11-02T08:27:58.129Z,10.14
2022-11-02T08:30:26.285Z,10.17
2022-11-02T08:32:57.037Z,10.26
2022-11-02T08:35:25.527Z,10.38
2022-11-02T08:37:56.897Z,10.53
2022-11-02T08:40:26.162Z,10.67
2022-11-02T08:42:57.530Z,10.83
2022-11-02T08:45:25.410Z,10.98
2022-11-02T08:47:53.418Z,11.13
2022-11-02T08:50:21.883Z,11.29
2022-11-02T08:52:49.801Z,11.45
2022-11-02T08:55:17.954Z,11.61
2022-11-02T08:57:48.292Z,11.75
2022-11-02T09:00:17.049Z,11.86
2022-11-02T09:02:45.537Z,11.93
2022-11-02T09:05:13.457Z,11.97
2022-11-02T09:07:41.305Z,11.98
2022-11-02T09:10:09.938Z,11.99
2022-11-02T09:12:37.978Z,12.07
2022-11-02T09:15:08.289Z,12.20
2022-11-02T09:17:36.205Z,12.38
2022-11-02T09:20:04.198Z,12.51
2022-11-02T09:22:32.162Z,12.67
2022-11-02T09:25:00.029Z,12.83
2022-11-02T09:27:27.879Z,12.95
2022-11-02T09:29:55.733Z,13.08
2022-11-02T09:32:24.990Z,13.18
2022-11-02T09:34:52.979Z,13.32
2022-11-02T09:37:20.827Z,13.43
2022-11-02T09:39:48.766Z,13.49
2022-11-02T09:42:23.873Z,13.56
2022-11-02T09:44:57.599Z,13.63
2022-11-02T09:48:10.693Z,13.72
2022-11-02T09:50:22.171Z,13.82
2022-11-02T09:52:56.134Z,13.91
2022-11-02T09:55:29.176Z,14.02
2022-11-02T09:58:04.978Z,14.13
2022-11-02T10:00:38.522Z,14.24
2022-11-02T10:03:18.834Z,14.37
2022-11-02T10:05:54.100Z,14.44
2022-11-02T10:08:35.083Z,14.34
2022-11-02T10:11:19.534Z,14.35
2022-11-02T10:13:56.879Z,14.28
2022-11-02T10:16:31.237Z,14.19
2022-11-02T10:19:00.585Z,14.21
2022-11-02T10:21:33.636Z,14.20
2022-11-02T10:24:10.886Z,14.13
2022-11-02T10:26:43.363Z,14.06
2022-11-02T10:29:19.428Z,14.00
2022-11-02T10:31:48.624Z,13.99
2022-11-02T10:34:25.919Z,13.95
2022-11-02T10:37:07.644Z,13.96
2022-11-02T10:39:44.996Z,13.94
2022-11-02T10:42:35.319Z,13.95
2022-11-02T10:45:39.027Z,13.91
2022-11-02T10:48:18.812Z,13.90
2022-11-02T10:50:54.709Z,13.91
2022-11-02T10:56:18.298Z,13.91
2022-11-02T10:58:53.822Z,13.93
2022-11-02T11:01:21.955Z,13.99
2022-11-02T11:03:56.696Z,14.12
2022-11-02T11:06:29.416Z,14.35
2022-11-02T11:09:01.596Z,14.54
2022-11-02T11:11:32.217Z,14.75
2022-11-02T11:16:54.169Z,14.77
2022-11-02T11:22:05.397Z,14.50
2022-11-02T11:24:34.987Z,14.36
2022-11-02T11:27:05.498Z,14.30
2022-11-02T11:29:34.839Z,14.37
2022-11-02T11:32:04.542Z,14.52
2022-11-02T11:34:34.897Z,14.64
2022-11-02T11:37:10.770Z,14.75
2022-11-02T11:39:40.663Z,14.83
2022-11-02T11:42:16.480Z,14.90
2022-11-02T11:44:53.036Z,14.95
2022-11-02T11:47:27.734Z,15.06
2022-11-02T11:50:18.787Z,15.13
2022-11-02T11:52:46.454Z,15.22
2022-11-02T11:55:25.723Z,15.27
2022-11-02T11:58:07.945Z,15.32
2022-11-02T12:00:36.198Z,15.39
2022-11-02T12:03:07.539Z,15.46
2022-11-02T12:05:48.409Z,15.56
2022-11-02T12:08:38.415Z,15.60
2022-11-02T12:11:20.956Z,15.74
2022-11-02T12:14:06.088Z,15.85
2022-11-02T12:16:51.365Z,16.01
2022-11-02T12:19:33.908Z,16.17
2022-11-02T12:22:11.376Z,16.29
2022-11-02T12:24:54.838Z,16.39
2022-11-02T12:27:38.086Z,16.54
2022-11-02T12:30:15.071Z,16.70
2022-11-02T12:33:07.451Z,16.88
2022-11-02T12:35:44.854Z,17.11
2022-11-02T12:38:35.867Z,17.25
2022-11-02T12:41:08.444Z,17.31
2022-11-02T12:43:41.406Z,17.38
2022-11-02T12:46:23.159Z,17.52
2022-11-02T12:49:01.485Z,17.65
2022-11-02T12:51:34.310Z,17.76
2022-11-02T12:54:09.656Z,17.89
2022-11-02T12:56:46.580Z,17.94
2022-11-02T12:59:19.844Z,17.90
2022-11-02T13:01:52.875Z,17.84
2022-11-02T13:04:28.124Z,17.77
2022-11-02T13:07:04.988Z,17.75
2022-11-02T13:09:36.429Z,17.64
2022-11-02T13:12:09.518Z,17.56
2022-11-02T13:14:41.796Z,17.56
2022-11-02T13:17:16.449Z,17.55
2022-11-02T13:19:49.336Z,17.61
2022-11-02T13:22:21.187Z,17.57
2022-11-02T13:24:53.624Z,17.59
2022-11-02T13:27:36.430Z,17.53
2022-11-02T13:30:07.215Z,17.46
2022-11-02T13:32:41.909Z,17.32
2022-11-02T13:35:18.787Z,17.23
2022-11-02T13:37:50.741Z,17.19
2022-11-02T13:40:24.455Z,17.15
2022-11-02T13:43:18.007Z,16.98
2022-11-02T13:46:00.860Z,16.86
2022-11-02T13:48:48.623Z,16.73
2022-11-02T13:51:27.150Z,16.54
2022-11-02T13:54:02.016Z,16.39
2022-11-02T13:56:31.213Z,16.33
2022-11-02T13:59:03.402Z,16.30
2022-11-02T14:01:34.277Z,16.25
2022-11-02T14:04:06.810Z,16.11
2022-11-02T14:06:46.769Z,16.10
2022-11-02T14:09:27.662Z,16.07
2022-11-02T14:12:27.398Z,16.04
2022-11-02T14:15:47.209Z,16.05
2022-11-02T14:18:31.517Z,15.98
2022-11-02T14:21:00.346Z,15.85
2022-11-02T14:23:39.903Z,15.66
2022-11-02T14:26:34.150Z,15.48
2022-11-02T14:29:06.716Z,15.41
2022-11-02T14:31:53.044Z,15.28
2022-11-02T14:34:35.639Z,15.19
2022-11-02T14:37:31.395Z,15.13
2022-11-02T14:40:08.096Z,15.04
2022-11-02T14:42:51.111Z,14.94
2022-11-02T14:45:29.762Z,14.87
2022-11-02T14:48:00.104Z,14.82
2022-11-02T14:50:30.256Z,14.74
2022-11-02T14:53:04.704Z,14.68
2022-11-02T14:55:34.518Z,14.62
2022-11-02T14:58:10.571Z,14.57
2022-11-02T15:00:55.709Z,14.47
2022-11-02T15:03:33.866Z,14.38
2022-11-02T15:06:09.025Z,14.30
2022-11-02T15:08:49.016Z,14.22
2022-11-02T15:11:44.084Z,14.14
2022-11-02T15:14:51.721Z,14.05
2022-11-02T15:18:02.086Z,13.96
2022-11-02T15:20:32.798Z,13.86
2022-11-02T15:23:31.263Z,13.74
2022-11-02T15:26:00.236Z,13.64
2022-11-02T15:28:34.455Z,13.57
2022-11-02T15:31:07.524Z,13.48
2022-11-02T15:33:38.322Z,13.39
2022-11-02T15:36:09.676Z,13.27
2022-11-02T15:38:40.497Z,13.16
2022-11-02T15:41:22.984Z,13.01
2022-11-02T15:44:03.001Z,12.87
2022-11-02T15:46:44.741Z,12.76
2022-11-02T15:49:35.017Z,12.63
2022-11-02T15:52:08.963Z,12.51
2022-11-02T15:54:58.506Z,12.40
2022-11-02T15:57:38.271Z,12.31
2022-11-02T16:00:16.825Z,12.19
2022-11-02T16:02:48.368Z,12.05
2022-11-02T16:05:20.862Z,11.96
2022-11-02T16:08:10.104Z,11.87
2022-11-02T16:10:39.155Z,11.77
2022-11-02T16:13:16.963Z,11.67
2022-11-02T16:15:46.457Z,11.54
2022-11-02T16:18:25.088Z,11.44
2022-11-02T16:20:55.040Z,11.32
2022-11-02T16:23:26.272Z,11.23
2022-11-02T16:25:57.299Z,11.15
2022-11-02T16:28:27.308Z,11.08
2022-11-02T16:31:05.306Z,11.01
2022-11-02T16:33:40.776Z,10.94
2022-11-02T16:36:10.047Z,10.88
2022-11-02T16:38:39.436Z,10.81
2022-11-02T16:41:10.495Z,10.75
2022-11-02T16:43:45.651Z,10.70
2022-11-02T16:46:16.994Z,10.64
2022-11-02T16:49:04.108Z,10.58
2022-11-02T16:51:31.968Z,10.50
2022-11-02T16:54:18.442Z,10.40
2022-11-02T16:56:51.245Z,10.34
2022-11-02T16:59:19.359Z,10.27
2022-11-02T17:01:47.394Z,10.20
2022-11-02T17:04:18.550Z,10.14
2022-11-02T17:06:47.233Z,10.08
2022-11-02T17:09:25.736Z,10.03
2022-11-02T17:11:57.578Z,9.97
2022-11-02T17:14:27.079Z,9.93
2022-11-02T17:17:00.466Z,9.89
2022-11-02T17:19:46.862Z,9.83
2022-11-02T17:22:23.854Z,9.78
2022-11-02T17:25:04.836Z,9.72
2022-11-02T17:27:39.185Z,9.68
2022-11-02T17:30:41.888Z,9.65
2022-11-02T17:33:13.205Z,9.60
2022-11-02T17:35:47.079Z,9.54
2022-11-02T17:38:16.444Z,9.46
2022-11-02T17:40:44.403Z,9.23
2022-11-02T17:43:12.784Z,9.11
2022-11-02T17:45:40.735Z,9.04
2022-11-02T17:48:10.908Z,8.98
2022-11-02T17:50:40.399Z,8.91
2022-11-02T17:53:12.842Z,8.89
2022-11-02T17:55:40.835Z,8.84
2022-11-02T17:58:08.946Z,8.80
2022-11-02T18:00:38.338Z,8.77
2022-11-02T18:03:12.179Z,8.73
2022-11-02T18:05:41.654Z,8.68
2022-11-02T18:08:12.884Z,8.60
2022-11-02T18:10:42.868Z,8.57
2022-11-02T18:13:13.185Z,8.51
2022-11-02T18:15:43.099Z,8.42
2022-11-02T18:18:11.176Z,8.32
2022-11-02T18:20:41.754Z,8.26
2022-11-02T18:23:16.014Z,8.22
2022-11-02T18:25:44.180Z,8.18
2022-11-02T18:28:12.229Z,8.12
2022-11-02T18:30:45.108Z,8.06
2022-11-02T18:33:14.017Z,8.00
2022-11-02T18:35:44.176Z,7.94
2022-11-02T18:38:12.270Z,7.88
2022-11-02T18:40:40.165Z,7.85
2022-11-02T18:43:08.441Z,7.80
2022-11-02T18:45:36.753Z,7.75
2022-11-02T18:48:06.473Z,7.71
2022-11-02T18:50:34.701Z,7.65
2022-11-02T18:53:02.497Z,7.59
2022-11-02T18:55:30.234Z,7.55
2022-11-02T18:57:58.108Z,7.52
2022-11-02T19:00:26.058Z,7.49
2022-11-02T19:02:53.970Z,7.45
2022-11-02T19:05:40.482Z,7.41
2022-11-02T19:08:28.081Z,7.38
2022-11-02T19:10:55.974Z,7.37
2022-11-02T19:13:23.999Z,7.35
2022-11-02T19:15:51.937Z,7.31
2022-11-02T19:18:19.718Z,7.27
2022-11-02T19:20:48.827Z,7.26
2022-11-02T19:23:16.587Z,7.23
2022-11-02T19:25:51.286Z,7.20
2022-11-02T19:28:19.187Z,7.16
2022-11-02T19:30:47.097Z,7.11
2022-11-02T19:33:14.884Z,7.09
2022-11-02T19:35:42.814Z,7.08
2022-11-02T19:38:12.033Z,7.03
2022-11-02T19:40:39.783Z,7.01
2022-11-02T19:43:08.062Z,6.96
2022-11-02T19:45:36.117Z,6.91
2022-11-02T19:48:04.073Z,6.87
2022-11-02T19:50:32.127Z,6.83
2022-11-02T19:53:01.246Z,6.79
2022-11-02T19:55:30.565Z,6.77
2022-11-02T19:57:58.336Z,6.74
2022-11-02T20:00:26.333Z,6.70
2022-11-02T20:02:54.097Z,6.67
2022-11-02T20:05:21.894Z,6.62
2022-11-02T20:07:49.660Z,6.60
2022-11-02T20:10:17.456Z,6.57
2022-11-02T20:12:46.570Z,6.54
2022-11-02T20:15:14.323Z,6.52
2022-11-02T20:18:05.548Z,6.48
2022-11-02T20:20:29.837Z,6.40
2022-11-02T20:22:57.698Z,6.34
2022-11-02T20:25:26.101Z,6.29
2022-11-02T20:27:55.351Z,6.28
2022-11-02T20:30:23.788Z,6.22
2022-11-02T20:32:51.530Z,6.20
2022-11-02T20:35:24.516Z,6.18
2022-11-02T20:37:52.536Z,6.14
2022-11-02T20:40:20.268Z,6.10
2022-11-02T20:42:49.644Z,6.04
2022-11-02T20:45:18.932Z,6.01
2022-11-02T20:47:46.702Z,5.95
2022-11-02T20:50:16.686Z,5.96
2022-11-02T20:52:45.501Z,5.95
2022-11-02T20:55:13.448Z,5.94
2022-11-02T20:57:41.228Z,5.92
2022-11-02T21:00:11.020Z,5.91
2022-11-02T21:02:40.201Z,5.89
2022-11-02T21:05:08.556Z,5.87
2022-11-02T21:07:36.332Z,5.84
2022-11-02T21:10:04.930Z,5.84
2022-11-02T21:12:50.225Z,5.84
2022-11-02T21:15:18.201Z,5.82
2022-11-02T21:17:47.364Z,5.81
2022-11-02T21:20:33.028Z,5.85
2022-11-02T21:23:02.514Z,5.86
2022-11-02T21:25:30.599Z,5.87
2022-11-02T21:27:58.596Z,5.89
2022-11-02T21:30:26.777Z,5.88
2022-11-02T21:32:55.903Z,5.90
2022-11-02T21:35:24.246Z,5.90
2022-11-02T21:37:56.789Z,5.88
2022-11-02T21:40:25.047Z,5.87
2022-11-02T21:42:52.877Z,5.89
2022-11-02T21:45:25.205Z,5.90
2022-11-02T21:47:55.216Z,5.93
2022-11-02T21:50:23.854Z,5.93
2022-11-02T21:52:51.598Z,5.94
2022-11-02T21:55:19.440Z,5.94
2022-11-02T21:57:47.470Z,5.94
2022-11-02T22:00:16.462Z,5.95
2022-11-02T22:02:43.298Z,5.94
2022-11-02T22:05:32.459Z,5.94
2022-11-02T22:08:17.988Z,5.94
2022-11-02T22:10:45.876Z,5.92
2022-11-02T22:13:31.263Z,5.91
2022-11-02T22:15:59.006Z,5.90
2022-11-02T22:18:26.762Z,5.87
2022-11-02T22:20:56.643Z,5.83
2022-11-02T22:23:24.451Z,5.75
2022-11-02T22:25:58.372Z,5.69
2022-11-02T22:28:29.754Z,5.59
2022-11-02T22:30:57.558Z,5.55
2022-11-02T22:33:25.543Z,5.54
2022-11-02T22:35:53.325Z,5.53
2022-11-02T22:38:40.048Z,5.53
2022-11-02T22:41:07.812Z,5.52
2022-11-02T22:43:35.772Z,5.50
2022-11-02T22:46:04.572Z,5.48
2022-11-02T22:48:33.848Z,5.48
2022-11-02T22:51:02.320Z,5.49
2022-11-02T22:53:31.415Z,5.49
2022-11-02T22:56:00.538Z,5.47
2022-11-02T22:58:30.343Z,5.50
2022-11-02T23:00:58.230Z,5.49
2022-11-02T23:03:26.173Z,5.47
2022-11-02T23:05:54.251Z,5.43
2022-11-02T23:08:22.127Z,5.41
2022-11-02T23:11:13.425Z,5.39
2022-11-02T23:13:41.706Z,5.37
2022-11-02T23:16:24.727Z,5.36
2022-11-02T23:19:15.298Z,5.33
2022-11-02T23:21:44.951Z,5.31
2022-11-02T23:24:31.040Z,5.29
2022-11-02T23:27:00.240Z,5.28
2022-11-02T23:29:45.436Z,5.25
2022-11-02T23:32:26.890Z,5.24
2022-11-02T23:35:13.495Z,5.22
2022-11-02T23:37:41.650Z,5.20
2022-11-02T23:40:11.075Z,5.15
2022-11-02T23:42:40.287Z,5.13
2022-11-02T23:45:09.356Z,5.12
2022-11-02T23:47:54.557Z,5.09
2022-11-02T23:50:41.717Z,5.07
2022-11-02T23:53:29.851Z,5.04
2022-11-02T23:56:15.558Z,5.01
2022-11-02T23:58:45.157Z,5.01
